createdAt,value
2016-05-24T00:00:21.920Z,53.92
2016-05-24T00:01:21.797Z,53.64
2016-05-24T00:02:22.066Z,54.02
2016-05-24T00:03:22.006Z,53.64
2016-05-24T00:04:22.024Z,53.74
2016-05-24T00:05:22.058Z,52.77
2016-05-24T00:06:22.076Z,53.74
2016-05-24T00:07:22.094Z,53.35
2016-05-24T00:08:22.128Z,54.22
2016-05-24T00:09:22.147Z,54.22
2016-05-24T00:10:22.181Z,54.41
2016-05-24T00:11:22.199Z,53.74
2016-05-24T00:12:22.233Z,53.25
2016-05-24T00:13:22.251Z,54.12
2016-05-24T00:14:22.316Z,54.22
2016-05-24T00:15:22.303Z,54.22
2016-05-24T00:16:22.166Z,54.41
2016-05-24T00:17:22.356Z,53.92
2016-05-24T00:18:22.374Z,53.83
2016-05-24T00:19:22.408Z,53.64
2016-05-24T00:20:22.427Z,54.22
2016-05-24T00:21:22.445Z,53.92
2016-05-24T00:22:22.479Z,54.24
2016-05-24T00:23:22.513Z,54.12
2016-05-24T00:24:22.530Z,53.64
2016-05-24T00:25:22.408Z,53.74
2016-05-24T00:26:22.582Z,54.41
2016-05-24T00:27:22.633Z,54.89
2016-05-24T00:28:22.635Z,54.22
2016-05-24T00:29:22.951Z,54.31
2016-05-24T00:30:22.687Z,54.12
2016-05-24T00:31:22.707Z,54.22
2016-05-24T00:32:22.740Z,54.22
2016-05-24T00:33:22.759Z,54.22
2016-05-24T00:34:22.792Z,54.41
2016-05-24T00:35:22.810Z,54.41
2016-05-24T00:36:22.844Z,54.02
2016-05-24T00:37:22.862Z,54.79
2016-05-24T00:38:22.897Z,54.89
2016-05-24T00:39:22.931Z,54.31
2016-05-24T00:40:22.934Z,54.31
2016-05-24T00:41:22.983Z,54.22
2016-05-24T00:42:22.986Z,54.12
2016-05-24T00:43:23.035Z,53.64
2016-05-24T00:44:22.881Z,54.79
2016-05-24T00:45:23.072Z,54.12
2016-05-24T00:46:23.106Z,54.22
2016-05-24T00:47:23.124Z,54.12
2016-05-24T00:48:23.158Z,54.22
2016-05-24T00:49:23.161Z,54.69
2016-05-24T00:50:23.195Z,54.79
2016-05-24T00:51:23.213Z,54.89
2016-05-24T00:52:23.247Z,54.22
2016-05-24T00:53:23.265Z,53.83
2016-05-24T00:54:23.143Z,54.41
2016-05-24T00:55:23.333Z,54.22
2016-05-24T00:56:23.352Z,54.31
2016-05-24T00:57:23.369Z,54.12
2016-05-24T00:58:23.404Z,54.22
2016-05-24T00:59:23.421Z,54.31
2016-05-24T01:00:23.451Z,54.12
2016-05-24T01:01:23.513Z,54.41
2016-05-24T01:02:23.560Z,54.22
2016-05-24T01:03:23.623Z,54.31
2016-05-24T01:04:23.669Z,54.12
2016-05-24T01:05:23.724Z,53.45
2016-05-24T01:06:23.768Z,53.64
2016-05-24T01:07:23.796Z,54.12
2016-05-24T01:08:23.825Z,54.31
2016-05-24T01:09:23.854Z,54.12
2016-05-24T01:10:23.895Z,54.02
2016-05-24T01:11:23.761Z,54.02
2016-05-24T01:12:23.955Z,54.22
2016-05-24T01:13:23.977Z,54.22
2016-05-24T01:14:23.859Z,54.31
2016-05-24T01:15:24.037Z,54.02
2016-05-24T01:16:24.071Z,53.83
2016-05-24T01:17:24.091Z,54.41
2016-05-24T01:18:24.110Z,54.22
2016-05-24T01:19:24.144Z,54.22
2016-05-24T01:20:24.164Z,54.22
2016-05-24T01:21:24.199Z,54.02
2016-05-24T01:22:24.061Z,54.02
2016-05-24T01:23:24.252Z,54.12
2016-05-24T01:24:24.270Z,54.22
2016-05-24T01:25:24.305Z,54.22
2016-05-24T01:26:24.166Z,54.22
2016-05-24T01:27:24.342Z,54.41
2016-05-24T01:28:24.376Z,54.89
2016-05-24T01:29:24.411Z,54.5
2016-05-24T01:30:24.428Z,54.41
2016-05-24T01:31:24.448Z,54.22
2016-05-24T01:32:24.482Z,54.79
2016-05-24T01:33:24.500Z,54.5
2016-05-24T01:34:24.361Z,54.89
2016-05-24T01:35:24.552Z,54.79
2016-05-24T01:36:24.569Z,54.79
2016-05-24T01:37:24.605Z,54.31
2016-05-24T01:38:24.623Z,54.22
2016-05-24T01:39:24.657Z,53.83
2016-05-24T01:40:24.675Z,54.41
2016-05-24T01:41:24.708Z,54.6
2016-05-24T01:42:24.571Z,54.41
2016-05-24T01:43:24.760Z,54.41
2016-05-24T01:44:24.796Z,54.69
2016-05-24T01:45:24.813Z,55.08
2016-05-24T01:46:24.832Z,54.99
2016-05-24T01:47:24.865Z,54.22
2016-05-24T01:48:24.868Z,54.5
2016-05-24T01:49:24.746Z,54.12
2016-05-24T01:50:24.937Z,54.12
2016-05-24T01:51:24.954Z,54.69
2016-05-24T01:52:24.973Z,54.6
2016-05-24T01:53:25.006Z,54.12
2016-05-24T01:54:25.040Z,54.41
2016-05-24T01:55:25.059Z,55.08
2016-05-24T01:56:25.109Z,54.5
2016-05-24T01:57:25.111Z,54.79
2016-05-24T01:58:25.129Z,54.69
2016-05-24T01:59:25.695Z,54.5
2016-05-24T02:00:25.182Z,55.08
2016-05-24T02:01:25.216Z,55.27
2016-05-24T02:02:25.234Z,54.89
2016-05-24T02:03:25.267Z,55.08
2016-05-24T02:04:25.302Z,54.99
2016-05-24T02:05:25.319Z,54.99
2016-05-24T02:06:25.339Z,54.99
2016-05-24T02:07:25.358Z,55.18
2016-05-24T02:08:25.235Z,54.5
2016-05-24T02:09:25.408Z,54.41
2016-05-24T02:10:25.443Z,54.99
2016-05-24T02:11:25.461Z,55.27
2016-05-24T02:12:25.496Z,54.69
2016-05-24T02:13:25.514Z,54.99
2016-05-24T02:14:25.376Z,54.89
2016-05-24T02:15:25.582Z,54.79
2016-05-24T02:16:25.599Z,55.08
2016-05-24T02:17:25.618Z,55.08
2016-05-24T02:18:25.480Z,55.37
2016-05-24T02:19:25.701Z,55.37
2016-05-24T02:20:25.689Z,55.18
2016-05-24T02:21:25.707Z,54.69
2016-05-24T02:22:25.740Z,54.99
2016-05-24T02:23:25.759Z,55.18
2016-05-24T02:24:25.793Z,54.89
2016-05-24T02:25:25.812Z,54.99
2016-05-24T02:26:25.861Z,54.99
2016-05-24T02:27:25.864Z,54.69
2016-05-24T02:28:25.882Z,55.18
2016-05-24T02:29:25.760Z,55.18
2016-05-24T02:30:25.950Z,55.37
2016-05-24T02:31:25.968Z,55.08
2016-05-24T02:32:26.002Z,54.99
2016-05-24T02:33:26.005Z,55.37
2016-05-24T02:34:26.038Z,55.27
2016-05-24T02:35:26.058Z,55.18
2016-05-24T02:36:26.091Z,55.18
2016-05-24T02:37:26.109Z,55.37
2016-05-24T02:38:26.143Z,55.27
2016-05-24T02:39:26.005Z,55.46
2016-05-24T02:40:26.180Z,55.37
2016-05-24T02:41:26.058Z,54.99
2016-05-24T02:42:26.248Z,54.99
2016-05-24T02:43:26.266Z,54.99
2016-05-24T02:44:26.190Z,55.08
2016-05-24T02:45:26.318Z,54.79
2016-05-24T02:46:26.430Z,55.18
2016-05-24T02:47:26.215Z,55.37
2016-05-24T02:48:26.405Z,55.18
2016-05-24T02:49:26.470Z,55.27
2016-05-24T02:50:26.348Z,55.37
2016-05-24T02:51:26.318Z,55.37
2016-05-24T02:52:26.540Z,55.27
2016-05-24T02:53:26.512Z,55.66
2016-05-24T02:54:26.593Z,55.94
2016-05-24T02:55:26.564Z,55.94
2016-05-24T02:56:26.598Z,55.37
2016-05-24T02:57:26.617Z,55.76
2016-05-24T02:58:26.635Z,55.91
2016-05-24T02:59:26.668Z,55.85
2016-05-24T03:00:26.703Z,55.82
2016-05-24T03:01:26.720Z,55.37
2016-05-24T03:02:26.739Z,55.37
2016-05-24T03:03:26.773Z,55.18
2016-05-24T03:04:26.636Z,55.46
2016-05-24T03:05:26.825Z,55.37
2016-05-24T03:06:26.844Z,55.56
2016-05-24T03:07:26.862Z,55.37
2016-05-24T03:08:26.896Z,55.46
2016-05-24T03:09:26.914Z,55.94
2016-05-24T03:10:26.948Z,55.91
2016-05-24T03:11:26.966Z,55.85
2016-05-24T03:12:27.000Z,55.85
2016-05-24T03:13:27.018Z,55.85
2016-05-24T03:14:27.052Z,55.66
2016-05-24T03:15:27.071Z,55.76
2016-05-24T03:16:27.105Z,55.37
2016-05-24T03:17:27.124Z,55.08
2016-05-24T03:18:27.141Z,55.53
2016-05-24T03:19:27.175Z,55.85
2016-05-24T03:20:27.193Z,55.76
2016-05-24T03:21:27.227Z,55.18
2016-05-24T03:22:27.262Z,55.53
2016-05-24T03:23:27.265Z,55.08
2016-05-24T03:24:27.298Z,55.76
2016-05-24T03:25:27.317Z,55.76
2016-05-24T03:26:27.351Z,55.76
2016-05-24T03:27:27.368Z,55.66
2016-05-24T03:28:27.403Z,55.66
2016-05-24T03:29:27.421Z,55.56
2016-05-24T03:30:27.455Z,55.56
2016-05-24T03:31:27.473Z,55.56
2016-05-24T03:32:27.507Z,55.27
2016-05-24T03:33:27.525Z,55.85
2016-05-24T03:34:27.544Z,55.76
2016-05-24T03:35:27.578Z,55.85
2016-05-24T03:36:27.596Z,55.46
2016-05-24T03:37:27.631Z,55.24
2016-05-24T03:38:27.648Z,55.46
2016-05-24T03:39:27.667Z,55.94
2016-05-24T03:40:27.716Z,55.85
2016-05-24T03:41:27.735Z,55.46
2016-05-24T03:42:27.768Z,55.85
2016-05-24T03:43:27.772Z,55.37
2016-05-24T03:44:27.805Z,55.66
2016-05-24T03:45:27.824Z,55.94
2016-05-24T03:46:27.857Z,55.76
2016-05-24T03:47:27.876Z,55.85
2016-05-24T03:48:27.893Z,55.85
2016-05-24T03:49:27.772Z,55.53
2016-05-24T03:50:27.946Z,55.37
2016-05-24T03:51:27.980Z,55.27
2016-05-24T03:52:27.842Z,55.27
2016-05-24T03:53:28.018Z,55.46
2016-05-24T03:54:28.051Z,55.56
2016-05-24T03:55:28.085Z,55.91
2016-05-24T03:56:28.103Z,55.27
2016-05-24T03:57:28.121Z,55.66
2016-05-24T03:58:28.156Z,55.27
2016-05-24T03:59:28.173Z,55.46
2016-05-24T04:00:28.411Z,55.27
2016-05-24T04:01:28.226Z,55.46
2016-05-24T04:02:28.244Z,55.27
2016-05-24T04:03:28.278Z,55.08
2016-05-24T04:04:28.312Z,55.85
2016-05-24T04:05:28.331Z,55.94
2016-05-24T04:06:28.348Z,55.85
2016-05-24T04:07:28.226Z,55.94
2016-05-24T04:08:28.400Z,55.56
2016-05-24T04:09:28.435Z,55.37
2016-05-24T04:10:28.453Z,55.18
2016-05-24T04:11:28.472Z,55.46
2016-05-24T04:12:28.505Z,55.37
2016-05-24T04:13:28.524Z,55.08
2016-05-24T04:14:28.557Z,55.37
2016-05-24T04:15:28.576Z,55.18
2016-05-24T04:16:28.611Z,55.76
2016-05-24T04:17:28.628Z,55.18
2016-05-24T04:18:28.663Z,55.37
2016-05-24T04:19:28.680Z,55.56
2016-05-24T04:20:28.698Z,55.94
2016-05-24T04:21:28.733Z,55.56
2016-05-24T04:22:28.751Z,55.27
2016-05-24T04:23:28.629Z,55.18
2016-05-24T04:24:28.804Z,55.37
2016-05-24T04:25:28.837Z,55.27
2016-05-24T04:26:28.856Z,55.46
2016-05-24T04:27:28.733Z,55.37
2016-05-24T04:28:28.908Z,55.18
2016-05-24T04:29:28.926Z,55.37
2016-05-24T04:30:29.195Z,55.27
2016-05-24T04:31:28.978Z,55.18
2016-05-24T04:32:29.012Z,55.37
2016-05-24T04:33:29.031Z,55.37
2016-05-24T04:34:29.049Z,55.37
2016-05-24T04:35:29.098Z,55.56
2016-05-24T04:36:29.117Z,55.37
2016-05-24T04:37:29.135Z,55.56
2016-05-24T04:38:29.153Z,55.08
2016-05-24T04:39:29.187Z,55.08
2016-05-24T04:40:29.206Z,55.18
2016-05-24T04:41:29.239Z,55.18
2016-05-24T04:42:29.102Z,55.18
2016-05-24T04:43:29.291Z,55.94
2016-05-24T04:44:29.311Z,55.27
2016-05-24T04:45:29.203Z,55.37
2016-05-24T04:46:29.363Z,55.46
2016-05-24T04:47:29.380Z,55.27
2016-05-24T04:48:29.415Z,54.79
2016-05-24T04:49:29.432Z,55.37
2016-05-24T04:50:29.467Z,55.37
2016-05-24T04:51:29.486Z,55.46
2016-05-24T04:52:29.504Z,55.37
2016-05-24T04:53:29.537Z,55.27
2016-05-24T04:54:29.415Z,55.37
2016-05-24T04:55:29.590Z,55.94
2016-05-24T04:56:29.624Z,55.27
2016-05-24T04:57:29.643Z,55.18
2016-05-24T04:58:29.504Z,55.37
2016-05-24T04:59:29.694Z,55.37
2016-05-24T05:00:29.713Z,55.85
2016-05-24T05:01:29.746Z,55.94
2016-05-24T05:02:29.765Z,55.37
2016-05-24T05:03:29.799Z,55.37
2016-05-24T05:04:29.833Z,55.37
2016-05-24T05:05:29.836Z,55.27
2016-05-24T05:06:29.713Z,54.99
2016-05-24T05:07:29.887Z,55.37
2016-05-24T05:08:29.922Z,54.99
2016-05-24T05:09:29.784Z,55.37
2016-05-24T05:10:29.974Z,54.89
2016-05-24T05:11:29.992Z,55.37
2016-05-24T05:12:30.011Z,55.37
2016-05-24T05:13:30.061Z,55.27
2016-05-24T05:14:30.063Z,55.27
2016-05-24T05:15:30.300Z,55.37
2016-05-24T05:16:30.115Z,55.27
2016-05-24T05:17:30.149Z,55.37
2016-05-24T05:18:30.167Z,54.99
2016-05-24T05:19:30.202Z,55.08
2016-05-24T05:20:30.219Z,55.27
2016-05-24T05:21:30.238Z,55.08
2016-05-24T05:22:30.272Z,55.37
2016-05-24T05:23:30.291Z,55.37
2016-05-24T05:24:30.307Z,55.27
2016-05-24T05:25:30.343Z,55.37
2016-05-24T05:26:30.361Z,55.08
2016-05-24T05:27:30.395Z,55.37
2016-05-24T05:28:30.428Z,55.66
2016-05-24T05:29:30.446Z,54.89
2016-05-24T05:30:30.824Z,55.56
2016-05-24T05:31:30.499Z,55.46
2016-05-24T05:32:30.533Z,55.56
2016-05-24T05:33:30.552Z,56.14
2016-05-24T05:34:30.570Z,55.94
2016-05-24T05:35:30.603Z,55.56
2016-05-24T05:36:30.623Z,56.23
2016-05-24T05:37:30.656Z,55.76
2016-05-24T05:38:30.674Z,55.37
2016-05-24T05:39:30.692Z,55.85
2016-05-24T05:40:30.726Z,55.08
2016-05-24T05:41:30.589Z,55.76
2016-05-24T05:42:30.810Z,55.18
2016-05-24T05:43:30.797Z,55.27
2016-05-24T05:44:30.675Z,55.66
2016-05-24T05:45:30.849Z,55.18
2016-05-24T05:46:30.867Z,55.76
2016-05-24T05:47:30.744Z,55.76
2016-05-24T05:48:30.935Z,56.04
2016-05-24T05:49:30.955Z,55.37
2016-05-24T05:50:30.972Z,56.14
2016-05-24T05:51:31.006Z,57.2
2016-05-24T05:52:31.040Z,56.43
2016-05-24T05:53:31.058Z,56.33
2016-05-24T05:54:31.076Z,57.68
2016-05-24T05:55:31.095Z,59.99
2016-05-24T05:56:31.129Z,60.46
2016-05-24T05:57:31.147Z,61.71
2016-05-24T05:58:31.181Z,62.38
2016-05-24T05:59:31.199Z,62.48
2016-05-24T06:00:31.593Z,62.48
2016-05-24T06:01:31.251Z,63.15
2016-05-24T06:02:31.129Z,63.25
2016-05-24T06:03:31.303Z,62.38
2016-05-24T06:04:31.338Z,62.29
2016-05-24T06:05:31.356Z,62.29
2016-05-24T06:06:31.390Z,62.48
2016-05-24T06:07:31.408Z,62.1
2016-05-24T06:08:31.442Z,63.15
2016-05-24T06:09:31.303Z,62.96
2016-05-24T06:10:31.478Z,63.06
2016-05-24T06:11:31.373Z,63.25
2016-05-24T06:12:31.531Z,62.77
2016-05-24T06:13:31.408Z,62.68
2016-05-24T06:14:31.584Z,62.68
2016-05-24T06:15:31.461Z,63.06
2016-05-24T06:16:31.635Z,62.48
2016-05-24T06:17:31.732Z,63.45
2016-05-24T06:18:31.532Z,62.87
2016-05-24T06:19:31.722Z,63.25
2016-05-24T06:20:31.741Z,63.15
2016-05-24T06:21:31.758Z,62.77
2016-05-24T06:22:31.793Z,63.25
2016-05-24T06:23:31.810Z,62.96
2016-05-24T06:24:31.844Z,63.25
2016-05-24T06:25:31.863Z,62.77
2016-05-24T06:26:31.897Z,62.87
2016-05-24T06:27:31.915Z,63.06
2016-05-24T06:28:31.949Z,63.45
2016-05-24T06:29:31.968Z,63.57
2016-05-24T06:30:31.845Z,63.06
2016-05-24T06:31:31.863Z,63.09
2016-05-24T06:32:32.054Z,63.35
2016-05-24T06:33:32.073Z,63.35
2016-05-24T06:34:32.106Z,63.35
2016-05-24T06:35:32.109Z,63.48
2016-05-24T06:36:31.987Z,63.57
2016-05-24T06:37:32.176Z,63.09
2016-05-24T06:38:32.195Z,63.09
2016-05-24T06:39:32.214Z,63.28
2016-05-24T06:40:32.092Z,63.28
2016-05-24T06:41:32.265Z,63.38
2016-05-24T06:42:32.299Z,63.76
2016-05-24T06:43:32.317Z,63.57
2016-05-24T06:44:32.211Z,63.64
2016-05-24T06:45:32.933Z,63.54
2016-05-24T06:46:32.404Z,63.54
2016-05-24T06:47:32.422Z,63.15
2016-05-24T06:48:32.456Z,62.51
2016-05-24T06:49:32.475Z,61.23
2016-05-24T06:50:32.509Z,61.81
2016-05-24T06:51:32.527Z,62.23
2016-05-24T06:52:32.545Z,62.38
2016-05-24T06:53:32.579Z,62.03
2016-05-24T06:54:32.613Z,62.29
2016-05-24T06:55:32.647Z,63.06
2016-05-24T06:56:32.649Z,63.18
2016-05-24T06:57:32.699Z,62.41
2016-05-24T06:58:32.702Z,62.23
2016-05-24T06:59:32.721Z,62.48
2016-05-24T07:00:32.771Z,63.09
2016-05-24T07:01:32.788Z,62.71
2016-05-24T07:02:32.807Z,62.48
2016-05-24T07:03:32.840Z,62.29
2016-05-24T07:04:32.702Z,62
2016-05-24T07:05:32.877Z,61.81
2016-05-24T07:06:32.911Z,62.48
2016-05-24T07:07:32.929Z,62.58
2016-05-24T07:08:32.963Z,62.77
2016-05-24T07:09:32.982Z,62.38
2016-05-24T07:10:33.015Z,62.29
2016-05-24T07:11:33.034Z,62.77
2016-05-24T07:12:33.068Z,62.68
2016-05-24T07:13:33.087Z,61.14
2016-05-24T07:14:33.104Z,61.14
2016-05-24T07:15:32.981Z,62.19
2016-05-24T07:16:33.156Z,63.35
2016-05-24T07:17:33.191Z,63.15
2016-05-24T07:18:33.114Z,62.19
2016-05-24T07:19:33.242Z,62.38
2016-05-24T07:20:33.261Z,62.48
2016-05-24T07:21:33.139Z,62.19
2016-05-24T07:22:33.313Z,61.91
2016-05-24T07:23:33.410Z,62.96
2016-05-24T07:24:33.366Z,62.96
2016-05-24T07:25:33.400Z,62.38
2016-05-24T07:26:33.261Z,60.94
2016-05-24T07:27:33.436Z,60.37
2016-05-24T07:28:33.471Z,60.75
2016-05-24T07:29:33.488Z,61.91
2016-05-24T07:30:33.522Z,61.52
2016-05-24T07:31:33.540Z,62.29
2016-05-24T07:32:33.574Z,62.19
2016-05-24T07:33:33.452Z,62.19
2016-05-24T07:34:33.705Z,62.77
2016-05-24T07:35:33.645Z,63.25
2016-05-24T07:36:33.663Z,63.25
2016-05-24T07:37:33.698Z,62.48
2016-05-24T07:38:33.716Z,62.38
2016-05-24T07:39:33.750Z,62
2016-05-24T07:40:33.768Z,63.06
2016-05-24T07:41:33.786Z,63.06
2016-05-24T07:42:33.820Z,62.38
2016-05-24T07:43:33.948Z,60.56
2016-05-24T07:44:33.872Z,58.83
2016-05-24T07:45:33.751Z,58.35
2016-05-24T07:46:33.940Z,57.87
2016-05-24T07:47:33.786Z,57.68
2016-05-24T07:48:33.978Z,57.58
2016-05-24T07:49:33.995Z,57.77
2016-05-24T07:50:34.139Z,57.48
2016-05-24T07:51:34.251Z,57.26
2016-05-24T07:52:34.081Z,57.58
2016-05-24T07:53:34.100Z,57.36
2016-05-24T07:54:34.133Z,57.07
2016-05-24T07:55:34.152Z,57.29
2016-05-24T07:56:34.186Z,57.29
2016-05-24T07:57:34.205Z,57.17
2016-05-24T07:58:34.222Z,57.58
2016-05-24T07:59:34.257Z,57.55
2016-05-24T08:00:34.274Z,57.65
2016-05-24T08:01:34.309Z,57.26
2016-05-24T08:02:34.171Z,57.55
2016-05-24T08:03:34.361Z,57.26
2016-05-24T08:04:34.224Z,56.91
2016-05-24T08:05:34.241Z,56.88
2016-05-24T08:06:34.448Z,56.78
2016-05-24T08:07:34.543Z,56.88
2016-05-24T08:08:34.484Z,56.59
2016-05-24T08:09:34.612Z,56.68
2016-05-24T08:10:34.521Z,56.71
2016-05-24T08:11:34.554Z,56.78
2016-05-24T08:12:34.417Z,56.4
2016-05-24T08:13:34.607Z,56.4
2016-05-24T08:14:34.719Z,56.68
2016-05-24T08:15:34.675Z,56.71
2016-05-24T08:16:34.740Z,56.88
2016-05-24T08:17:34.712Z,56.43
2016-05-24T08:18:34.730Z,56.91
2016-05-24T08:19:34.872Z,56.3
2016-05-24T08:20:34.844Z,56.4
2016-05-24T08:21:34.676Z,56.33
2016-05-24T08:22:34.850Z,56.43
2016-05-24T08:23:34.947Z,56.49
2016-05-24T08:24:34.731Z,56.11
2016-05-24T08:25:34.905Z,56.49
2016-05-24T08:26:34.938Z,56.71
2016-05-24T08:27:34.957Z,56.23
2016-05-24T08:28:35.022Z,56.43
2016-05-24T08:29:35.103Z,56.4
2016-05-24T08:30:36.808Z,56.21
2016-05-24T08:31:35.061Z,56.33
2016-05-24T08:32:35.096Z,56.23
2016-05-24T08:33:35.113Z,56.14
2016-05-24T08:34:35.085Z,56.14
2016-05-24T08:35:35.166Z,55.66
2016-05-24T08:36:35.185Z,55.85
2016-05-24T08:37:35.218Z,56.04
2016-05-24T08:38:35.237Z,56.04
2016-05-24T08:39:35.270Z,55.94
2016-05-24T08:40:35.304Z,56.14
2016-05-24T08:41:35.323Z,56.14
2016-05-24T08:42:35.341Z,55.56
2016-05-24T08:43:35.360Z,55.85
2016-05-24T08:44:35.393Z,55.66
2016-05-24T08:45:35.412Z,56.04
2016-05-24T08:46:35.445Z,55.46
2016-05-24T08:47:35.464Z,55.18
2016-05-24T08:48:35.497Z,55.08
2016-05-24T08:49:35.516Z,55.76
2016-05-24T08:50:35.535Z,55.76
2016-05-24T08:51:35.600Z,55.76
2016-05-24T08:52:35.602Z,55.27
2016-05-24T08:53:35.620Z,55.85
2016-05-24T08:54:35.639Z,55.94
2016-05-24T08:55:35.672Z,55.94
2016-05-24T08:56:35.629Z,55.85
2016-05-24T08:57:35.569Z,55.85
2016-05-24T08:58:35.775Z,55.85
2016-05-24T08:59:35.793Z,55.85
2016-05-24T09:00:36.280Z,55.85
2016-05-24T09:01:35.814Z,55.37
2016-05-24T09:02:35.691Z,55.94
2016-05-24T09:03:35.867Z,55.27
2016-05-24T09:04:35.900Z,55.76
2016-05-24T09:05:35.934Z,55.56
2016-05-24T09:06:35.952Z,55.18
2016-05-24T09:07:35.971Z,55.37
2016-05-24T09:08:36.099Z,55.18
2016-05-24T09:09:36.023Z,55.27
2016-05-24T09:10:36.057Z,55.08
2016-05-24T09:11:36.076Z,54.79
2016-05-24T09:12:36.094Z,55.18
2016-05-24T09:13:36.128Z,55.27
2016-05-24T09:14:36.162Z,54.69
2016-05-24T09:15:36.212Z,54.6
2016-05-24T09:16:36.214Z,55.08
2016-05-24T09:17:36.232Z,54.99
2016-05-24T09:18:36.266Z,54.89
2016-05-24T09:19:36.331Z,54.79
2016-05-24T09:20:36.318Z,54.5
2016-05-24T09:21:36.400Z,54.02
2016-05-24T09:22:36.355Z,54.5
2016-05-24T09:23:36.389Z,54.24
2016-05-24T09:24:36.251Z,54.82
2016-05-24T09:25:36.442Z,54.14
2016-05-24T09:26:36.553Z,54.6
2016-05-24T09:27:36.508Z,54.91
2016-05-24T09:28:36.512Z,54.63
2016-05-24T09:29:36.546Z,54.05
2016-05-24T09:30:36.580Z,54.34
2016-05-24T09:31:36.427Z,54.05
2016-05-24T09:32:36.616Z,54.05
2016-05-24T09:33:36.635Z,53.86
2016-05-24T09:34:36.669Z,53.96
2016-05-24T09:35:36.687Z,53.57
2016-05-24T09:36:36.767Z,53.66
2016-05-24T09:37:36.583Z,54.05
2016-05-24T09:38:36.773Z,53.76
2016-05-24T09:39:36.791Z,53.09
2016-05-24T09:40:36.826Z,53.76
2016-05-24T09:41:36.843Z,53.66
2016-05-24T09:42:36.877Z,53.86
2016-05-24T09:43:36.896Z,53.28
2016-05-24T09:44:36.976Z,53.28
2016-05-24T09:45:36.792Z,53.28
2016-05-24T09:46:36.981Z,53.57
2016-05-24T09:47:37.001Z,53.47
2016-05-24T09:48:37.019Z,53.57
2016-05-24T09:49:37.052Z,53.47
2016-05-24T09:50:37.071Z,53.09
2016-05-24T09:51:37.105Z,53.28
2016-05-24T09:52:36.967Z,52.92
2016-05-24T09:53:37.001Z,52.99
2016-05-24T09:54:37.175Z,53.11
2016-05-24T09:55:37.209Z,52.83
2016-05-24T09:56:37.244Z,52.8
2016-05-24T09:57:37.261Z,52.73
2016-05-24T09:58:37.374Z,52.63
2016-05-24T09:59:37.361Z,52.83
2016-05-24T10:00:37.333Z,52.83
2016-05-24T10:01:37.366Z,52.63
2016-05-24T10:02:37.385Z,52.54
2016-05-24T10:03:37.466Z,52.44
2016-05-24T10:04:37.436Z,52.25
2016-05-24T10:05:37.579Z,52.34
2016-05-24T10:06:37.502Z,52.25
2016-05-24T10:07:37.559Z,51.96
2016-05-24T10:08:37.598Z,51.86
2016-05-24T10:09:37.639Z,51.86
2016-05-24T10:10:37.539Z,51.67
2016-05-24T10:11:37.726Z,51.76
2016-05-24T10:12:37.752Z,51.86
2016-05-24T10:13:37.888Z,51.96
2016-05-24T10:14:38.367Z,51.57
2016-05-24T10:15:37.910Z,51.48
2016-05-24T10:16:37.980Z,51.19
2016-05-24T10:17:37.923Z,51.19
2016-05-24T10:18:37.960Z,51.09
2016-05-24T10:19:37.996Z,51.19
2016-05-24T10:20:37.877Z,51.19
2016-05-24T10:21:38.053Z,51.29
2016-05-24T10:22:38.072Z,51.38
2016-05-24T10:23:38.186Z,51.19
2016-05-24T10:24:38.126Z,51.19
2016-05-24T10:25:38.161Z,51.38
2016-05-24T10:26:39.540Z,50.81
2016-05-24T10:27:38.231Z,51.09
2016-05-24T10:28:38.234Z,51.09
2016-05-24T10:29:38.253Z,51.29
2016-05-24T10:30:38.131Z,51.09
2016-05-24T10:31:38.305Z,51.19
2016-05-24T10:32:38.340Z,51.09
2016-05-24T10:33:38.357Z,50.99
2016-05-24T10:34:38.392Z,50.71
2016-05-24T10:35:38.440Z,50.73
2016-05-24T10:36:38.428Z,50.63
2016-05-24T10:37:38.462Z,50.93
2016-05-24T10:38:38.324Z,50.9
2016-05-24T10:39:38.358Z,51.02
2016-05-24T10:40:38.408Z,50.54
2016-05-24T10:41:38.582Z,51.02
2016-05-24T10:42:38.600Z,50.35
2016-05-24T10:43:38.619Z,50.25
2016-05-24T10:44:38.637Z,50.54
2016-05-24T10:45:38.686Z,49.96
2016-05-24T10:46:38.705Z,50.06
2016-05-24T10:47:38.723Z,50.06
2016-05-24T10:48:38.586Z,50.54
2016-05-24T10:49:38.775Z,50.15
2016-05-24T10:50:38.794Z,49.87
2016-05-24T10:51:38.828Z,50.06
2016-05-24T10:52:38.861Z,50.25
2016-05-24T10:53:38.974Z,49.77
2016-05-24T10:54:38.757Z,49.87
2016-05-24T10:55:38.932Z,49.87
2016-05-24T10:56:38.951Z,49.6
2016-05-24T10:57:38.985Z,49.58
2016-05-24T10:58:39.018Z,49.51
2016-05-24T10:59:39.037Z,49.32
2016-05-24T11:00:39.164Z,50.09
2016-05-24T11:01:39.090Z,49.41
2016-05-24T11:02:39.123Z,49.32
2016-05-24T11:03:39.251Z,49.6
2016-05-24T11:04:39.176Z,49.6
2016-05-24T11:05:39.209Z,49.6
2016-05-24T11:06:39.368Z,49.02
2016-05-24T11:07:39.340Z,49.41
2016-05-24T11:08:39.279Z,49.22
2016-05-24T11:09:39.298Z,49.12
2016-05-24T11:10:39.332Z,48.83
2016-05-24T11:11:39.194Z,48.93
2016-05-24T11:12:39.228Z,48.83
2016-05-24T11:13:39.261Z,48.93
2016-05-24T11:14:39.453Z,48.93
2016-05-24T11:15:39.330Z,48.83
2016-05-24T11:16:39.332Z,48.44
2016-05-24T11:17:39.523Z,48.47
2016-05-24T11:18:39.541Z,48.66
2016-05-24T11:19:39.481Z,48.38
2016-05-24T11:20:39.594Z,48.57
2016-05-24T11:21:39.721Z,48.66
2016-05-24T11:22:39.646Z,48.66
2016-05-24T11:23:39.695Z,48.38
2016-05-24T11:24:39.697Z,48.38
2016-05-24T11:25:39.763Z,48.38
2016-05-24T11:26:39.766Z,48.18
2016-05-24T11:27:39.784Z,48.06
2016-05-24T11:28:39.646Z,48.57
2016-05-24T11:29:39.680Z,48.66
2016-05-24T11:30:39.714Z,48.76
2016-05-24T11:31:39.888Z,48.38
2016-05-24T11:32:39.766Z,48.57
2016-05-24T11:33:40.051Z,48.47
2016-05-24T11:34:39.975Z,48.28
2016-05-24T11:35:39.993Z,48.38
2016-05-24T11:36:40.011Z,48.28
2016-05-24T11:37:40.045Z,48.08
2016-05-24T11:38:40.079Z,47.99
2016-05-24T11:39:40.098Z,47.89
2016-05-24T11:40:40.131Z,47.89
2016-05-24T11:41:40.150Z,47.99
2016-05-24T11:42:40.184Z,47.6
2016-05-24T11:43:40.217Z,47.7
2016-05-24T11:44:40.236Z,47.89
2016-05-24T11:45:40.269Z,47.51
2016-05-24T11:46:40.288Z,47.6
2016-05-24T11:47:40.603Z,47.6
2016-05-24T11:48:40.341Z,47.51
2016-05-24T11:49:40.390Z,47.31
2016-05-24T11:50:40.393Z,47.41
2016-05-24T11:51:40.269Z,47.22
2016-05-24T11:52:40.445Z,47.89
2016-05-24T11:53:40.480Z,47.41
2016-05-24T11:54:40.513Z,46.93
2016-05-24T11:55:40.375Z,47.22
2016-05-24T11:56:40.549Z,47.12
2016-05-24T11:57:40.427Z,47.12
2016-05-24T11:58:40.461Z,47.12
2016-05-24T11:59:40.651Z,47.03
2016-05-24T12:00:40.669Z,46.93
2016-05-24T12:01:40.704Z,46.83
2016-05-24T12:02:40.721Z,46.93
2016-05-24T12:03:40.599Z,47.05
2016-05-24T12:04:40.774Z,46.86
2016-05-24T12:05:40.637Z,47.05
2016-05-24T12:06:40.920Z,46.95
2016-05-24T12:07:40.704Z,47.03
2016-05-24T12:08:40.879Z,46.86
2016-05-24T12:09:40.835Z,47.03
2016-05-24T12:10:40.946Z,47.03
2016-05-24T12:11:40.965Z,46.55
2016-05-24T12:12:40.983Z,46.86
2016-05-24T12:13:41.017Z,47.12
2016-05-24T12:14:41.114Z,46.93
2016-05-24T12:15:41.256Z,47.03
2016-05-24T12:16:41.150Z,46.76
2016-05-24T12:17:41.122Z,46.66
2016-05-24T12:18:41.172Z,46.86
2016-05-24T12:19:41.189Z,46.66
2016-05-24T12:20:41.207Z,46.66
2016-05-24T12:21:41.226Z,46.66
2016-05-24T12:22:41.260Z,46.95
2016-05-24T12:23:41.294Z,46.56
2016-05-24T12:24:41.312Z,46.66
2016-05-24T12:25:41.331Z,46.66
2016-05-24T12:26:41.427Z,46.66
2016-05-24T12:27:41.398Z,46.47
2016-05-24T12:28:41.510Z,46.56
2016-05-24T12:29:41.451Z,46.47
2016-05-24T12:30:41.579Z,46.37
2016-05-24T12:31:41.503Z,45.99
2016-05-24T12:32:41.521Z,46.28
2016-05-24T12:33:41.399Z,46.28
2016-05-24T12:34:41.590Z,46.08
2016-05-24T12:35:41.624Z,46.35
2016-05-24T12:36:41.641Z,46.08
2016-05-24T12:37:41.660Z,46.08
2016-05-24T12:38:41.693Z,45.99
2016-05-24T12:39:41.728Z,46.06
2016-05-24T12:40:41.746Z,45.99
2016-05-24T12:41:41.842Z,45.99
2016-05-24T12:42:41.798Z,45.99
2016-05-24T12:43:41.831Z,45.99
2016-05-24T12:44:41.850Z,45.89
2016-05-24T12:45:42.323Z,45.89
2016-05-24T12:46:41.903Z,46.08
2016-05-24T12:47:41.952Z,45.89
2016-05-24T12:48:41.955Z,45.99
2016-05-24T12:49:42.067Z,45.97
2016-05-24T12:50:42.133Z,46.08
2016-05-24T12:51:42.057Z,46.08
2016-05-24T12:52:42.075Z,46.08
2016-05-24T12:53:42.094Z,46.08